createdAt,value
2023-01-17T00:02:26.352Z,100.00
2023-01-17T00:05:13.621Z,100.00
2023-01-17T00:08:00.294Z,100.00
2023-01-17T00:10:29.254Z,100.00
2023-01-17T00:13:00.251Z,100.00
2023-01-17T00:15:30.749Z,100.00
2023-01-17T00:17:59.356Z,100.00
2023-01-17T00:20:48.969Z,100.00
2023-01-17T00:23:41.809Z,100.00
2023-01-17T00:26:21.278Z,100.00
2023-01-17T00:28:50.031Z,100.00
2023-01-17T00:31:18.271Z,100.00
2023-01-17T00:33:46.530Z,100.00
2023-01-17T00:36:15.047Z,100.00
2023-01-17T00:38:43.258Z,100.00
2023-01-17T00:41:13.798Z,100.00
2023-01-17T00:44:01.274Z,100.00
2023-01-17T00:46:48.426Z,100.00
2023-01-17T00:49:35.569Z,100.00
2023-01-17T00:52:22.503Z,100.00
2023-01-17T00:55:09.841Z,100.00
2023-01-17T00:57:56.444Z,100.00
2023-01-17T01:00:43.404Z,100.00
2023-01-17T01:03:31.061Z,100.00
2023-01-17T01:06:18.351Z,100.00
2023-01-17T01:09:05.434Z,100.00
2023-01-17T01:11:52.800Z,100.00
2023-01-17T01:14:39.559Z,100.00
2023-01-17T01:17:26.438Z,100.00
2023-01-17T01:20:13.332Z,100.00
2023-01-17T01:23:00.325Z,100.00
2023-01-17T01:25:47.289Z,100.00
2023-01-17T01:28:34.779Z,100.00
2023-01-17T01:31:22.119Z,100.00
2023-01-17T01:33:51.778Z,100.00
2023-01-17T01:36:20.173Z,100.00
2023-01-17T01:38:50.334Z,100.00
2023-01-17T01:41:19.163Z,100.00
2023-01-17T01:43:50.138Z,100.00
2023-01-17T01:46:39.411Z,100.00
2023-01-17T01:49:24.907Z,100.00
2023-01-17T01:52:00.819Z,100.00
2023-01-17T01:54:37.440Z,100.00
2023-01-17T01:57:09.719Z,100.00
2023-01-17T01:59:43.212Z,100.00
2023-01-17T02:02:12.170Z,100.00
2023-01-17T02:04:40.646Z,100.00
2023-01-17T02:07:17.663Z,100.00
2023-01-17T02:09:46.200Z,100.00
2023-01-17T02:12:14.635Z,100.00
2023-01-17T02:14:43.167Z,100.00
2023-01-17T02:17:53.495Z,100.00
2023-01-17T02:20:57.207Z,100.00
2023-01-17T02:23:50.748Z,100.00
2023-01-17T02:26:48.828Z,100.00
2023-01-17T02:29:42.169Z,100.00
2023-01-17T02:32:10.542Z,100.00
2023-01-17T02:35:03.478Z,100.00
2023-01-17T02:37:51.645Z,100.00
2023-01-17T02:40:39.994Z,100.00
2023-01-17T02:43:15.103Z,100.00
2023-01-17T02:45:43.740Z,100.00
2023-01-17T02:48:14.844Z,100.00
2023-01-17T02:50:59.275Z,100.00
2023-01-17T02:53:36.762Z,100.00
2023-01-17T02:56:42.280Z,100.00
2023-01-17T02:59:19.602Z,100.00
2023-01-17T03:02:01.208Z,100.00
2023-01-17T03:04:48.304Z,100.00
2023-01-17T03:07:20.766Z,100.00
2023-01-17T03:09:53.658Z,100.00
2023-01-17T03:12:21.989Z,100.00
2023-01-17T03:14:50.571Z,100.00
2023-01-17T03:17:18.936Z,100.00
2023-01-17T03:19:47.139Z,100.00
2023-01-17T03:22:15.629Z,100.00
2023-01-17T03:24:43.664Z,100.00
2023-01-17T03:27:12.081Z,100.00
2023-01-17T03:29:40.542Z,100.00
2023-01-17T03:32:09.163Z,100.00
2023-01-17T03:34:37.187Z,100.00
2023-01-17T03:37:05.892Z,100.00
2023-01-17T03:39:33.965Z,100.00
2023-01-17T03:42:02.195Z,100.00
2023-01-17T03:44:30.765Z,100.00
2023-01-17T03:46:58.870Z,100.00
2023-01-17T03:49:27.181Z,100.00
2023-01-17T03:51:55.834Z,100.00
2023-01-17T03:54:23.885Z,100.00
2023-01-17T03:56:52.014Z,100.00
2023-01-17T03:59:20.361Z,100.00
2023-01-17T04:01:48.602Z,100.00
2023-01-17T04:04:17.221Z,100.00
2023-01-17T04:06:45.570Z,100.00
2023-01-17T04:09:13.674Z,100.00
2023-01-17T04:11:42.191Z,100.00
2023-01-17T04:14:10.484Z,100.00
2023-01-17T04:16:38.664Z,100.00
2023-01-17T04:19:09.193Z,100.00
2023-01-17T04:21:37.384Z,100.00
2023-01-17T04:24:06.133Z,100.00
2023-01-17T04:26:34.613Z,100.00
2023-01-17T04:29:03.485Z,100.00
2023-01-17T04:31:33.106Z,100.00
2023-01-17T04:34:01.762Z,100.00
2023-01-17T04:36:29.960Z,100.00
2023-01-17T04:38:57.992Z,100.00
2023-01-17T04:41:26.894Z,100.00
2023-01-17T04:43:55.218Z,100.00
2023-01-17T04:46:23.460Z,100.00
2023-01-17T04:48:51.997Z,100.00
2023-01-17T04:51:20.721Z,100.00
2023-01-17T04:53:48.829Z,100.00
2023-01-17T04:56:17.500Z,100.00
2023-01-17T04:58:45.961Z,100.00
2023-01-17T05:01:15.006Z,100.00
2023-01-17T05:03:43.675Z,100.00
2023-01-17T05:06:11.846Z,100.00
2023-01-17T05:08:40.051Z,100.00
2023-01-17T05:11:08.950Z,100.00
2023-01-17T05:13:37.119Z,100.00
2023-01-17T05:16:05.578Z,100.00
2023-01-17T05:18:34.127Z,100.00
2023-01-17T05:21:05.298Z,100.00
2023-01-17T05:23:33.881Z,100.00
2023-01-17T05:26:02.043Z,100.00
2023-01-17T05:28:30.387Z,100.00
2023-01-17T05:30:58.850Z,100.00
2023-01-17T05:33:27.100Z,100.00
2023-01-17T05:35:55.176Z,100.00
2023-01-17T05:38:23.760Z,100.00
2023-01-17T05:40:51.869Z,100.00
2023-01-17T05:43:22.064Z,100.00
2023-01-17T05:45:50.673Z,100.00
2023-01-17T05:48:18.901Z,100.00
2023-01-17T05:50:47.139Z,100.00
2023-01-17T05:53:16.857Z,100.00
2023-01-17T05:55:45.301Z,100.00
2023-01-17T05:58:19.153Z,100.00
2023-01-17T06:00:48.767Z,100.00
2023-01-17T06:03:17.804Z,100.00
2023-01-17T06:05:46.928Z,100.00
2023-01-17T06:08:15.988Z,100.00
2023-01-17T06:10:44.478Z,100.00
2023-01-17T06:13:15.289Z,100.00
2023-01-17T06:15:43.641Z,100.00
2023-01-17T06:18:14.334Z,100.00
2023-01-17T06:20:43.299Z,100.00
2023-01-17T06:23:13.895Z,100.00
2023-01-17T06:25:45.352Z,100.00
2023-01-17T06:28:19.488Z,100.00
2023-01-17T06:30:48.156Z,100.00
2023-01-17T06:33:16.792Z,100.00
2023-01-17T06:35:52.345Z,100.00
2023-01-17T06:38:21.114Z,100.00
2023-01-17T06:40:49.367Z,100.00
2023-01-17T06:43:17.405Z,100.00
2023-01-17T06:45:46.054Z,100.00
2023-01-17T06:48:14.260Z,100.00
2023-01-17T06:50:42.434Z,100.00
2023-01-17T06:53:11.142Z,100.00
2023-01-17T06:55:40.463Z,100.00
2023-01-17T06:58:09.529Z,100.00
2023-01-17T07:00:40.552Z,100.00
2023-01-17T07:03:22.099Z,100.00
2023-01-17T07:05:51.956Z,100.00
2023-01-17T07:08:20.661Z,100.00
2023-01-17T07:10:49.340Z,100.00
2023-01-17T07:13:17.676Z,100.00
2023-01-17T07:15:46.023Z,100.00
2023-01-17T07:18:14.768Z,100.00
2023-01-17T07:20:43.969Z,100.00
2023-01-17T07:23:12.576Z,100.00
2023-01-17T07:25:40.649Z,100.00
2023-01-17T07:28:09.610Z,100.00
2023-01-17T07:30:37.829Z,100.00
2023-01-17T07:33:05.889Z,100.00
2023-01-17T07:35:34.800Z,100.00
2023-01-17T07:38:03.711Z,100.00
2023-01-17T07:40:36.593Z,100.00
2023-01-17T07:43:14.875Z,100.00
2023-01-17T07:45:53.517Z,100.00
2023-01-17T07:48:24.529Z,100.00
2023-01-17T07:50:54.464Z,100.00
2023-01-17T07:53:25.358Z,100.00
2023-01-17T07:55:54.235Z,100.00
2023-01-17T07:58:22.864Z,100.00
2023-01-17T08:00:51.241Z,100.00
2023-01-17T08:03:20.347Z,100.00
2023-01-17T08:05:56.330Z,100.00
2023-01-17T08:08:28.361Z,100.00
2023-01-17T08:10:56.533Z,100.00
2023-01-17T08:13:25.050Z,100.00
2023-01-17T08:15:54.576Z,100.00
2023-01-17T08:18:22.699Z,100.00
2023-01-17T08:20:51.089Z,100.00
2023-01-17T08:23:19.198Z,100.00
2023-01-17T08:25:47.308Z,100.00
2023-01-17T08:28:16.059Z,100.00
2023-01-17T08:30:44.513Z,100.00
2023-01-17T08:33:12.539Z,100.00
2023-01-17T08:35:50.576Z,100.00
2023-01-17T08:38:18.791Z,100.00
2023-01-17T08:40:47.415Z,100.00
2023-01-17T08:43:15.709Z,100.00
2023-01-17T08:45:48.377Z,100.00
2023-01-17T08:48:17.053Z,100.00
2023-01-17T08:50:45.179Z,100.00
2023-01-17T08:53:13.369Z,100.00
2023-01-17T08:55:42.083Z,100.00
2023-01-17T08:58:10.123Z,100.00
2023-01-17T09:00:38.247Z,100.00
2023-01-17T09:03:10.560Z,100.00
2023-01-17T09:05:38.589Z,100.00
2023-01-17T09:08:07.092Z,100.00
2023-01-17T09:10:35.431Z,100.00
2023-01-17T09:13:06.931Z,100.00
2023-01-17T09:15:35.449Z,100.00
2023-01-17T09:18:03.646Z,100.00
2023-01-17T09:20:31.887Z,100.00
2023-01-17T09:23:02.932Z,98.78
2023-01-17T09:25:31.202Z,96.52
2023-01-17T09:27:59.710Z,100.00
2023-01-17T09:30:27.846Z,93.90
2023-01-17T09:32:56.032Z,92.07
2023-01-17T09:35:24.436Z,89.56
2023-01-17T09:37:52.654Z,85.13
2023-01-17T09:40:24.446Z,86.58
2023-01-17T09:42:58.174Z,85.09
2023-01-17T09:45:30.289Z,83.81
2023-01-17T09:48:00.187Z,82.92
2023-01-17T09:50:33.424Z,81.05
2023-01-17T09:53:07.552Z,80.79
2023-01-17T09:55:43.738Z,84.95
2023-01-17T09:58:21.835Z,82.12
2023-01-17T10:01:03.986Z,83.98
2023-01-17T10:03:57.452Z,82.31
2023-01-17T10:06:43.846Z,82.73
2023-01-17T10:09:34.852Z,81.40
2023-01-17T10:12:37.169Z,82.87
2023-01-17T10:15:43.606Z,80.73
2023-01-17T10:18:30.016Z,78.40
2023-01-17T10:21:01.641Z,82.85
2023-01-17T10:23:50.678Z,84.19
2023-01-17T10:26:24.395Z,80.53
2023-01-17T10:28:56.768Z,80.50
2023-01-17T10:31:27.413Z,77.15
2023-01-17T10:34:22.739Z,79.22
2023-01-17T10:37:14.516Z,81.13
2023-01-17T10:39:49.763Z,78.98
2023-01-17T10:42:32.651Z,76.53
2023-01-17T10:45:30.660Z,77.50
2023-01-17T10:48:15.830Z,80.56
2023-01-17T10:51:12.897Z,81.38
2023-01-17T10:54:14.568Z,79.07
2023-01-17T10:56:42.933Z,76.63
2023-01-17T10:59:25.671Z,76.97
2023-01-17T11:01:54.405Z,80.71
2023-01-17T11:04:36.642Z,77.74
2023-01-17T11:07:17.002Z,76.71
2023-01-17T11:09:52.179Z,75.31
2023-01-17T11:12:40.835Z,78.07
2023-01-17T11:15:09.167Z,76.08
2023-01-17T11:17:45.383Z,76.30
2023-01-17T11:20:32.754Z,75.33
2023-01-17T11:23:23.293Z,75.07
2023-01-17T11:26:04.788Z,73.39
2023-01-17T11:28:36.018Z,72.18
2023-01-17T11:31:07.630Z,72.20
2023-01-17T11:34:02.622Z,72.83
2023-01-17T11:36:31.884Z,73.46
2023-01-17T11:39:04.679Z,72.57
2023-01-17T11:41:38.404Z,69.31
2023-01-17T11:44:23.946Z,73.30
2023-01-17T11:47:13.521Z,71.70
2023-01-17T11:49:46.629Z,70.72
2023-01-17T11:52:32.355Z,72.22
2023-01-17T11:55:00.598Z,70.56
2023-01-17T11:57:35.103Z,70.70
2023-01-17T12:00:08.929Z,76.25
2023-01-17T12:02:58.266Z,70.36
2023-01-17T12:05:56.331Z,70.36
2023-01-17T12:08:56.626Z,70.68
2023-01-17T12:12:04.527Z,69.75
2023-01-17T12:14:48.898Z,72.01
2023-01-17T12:17:33.782Z,70.10
2023-01-17T12:20:10.243Z,71.09
2023-01-17T12:23:00.492Z,72.14
2023-01-17T12:25:55.205Z,70.57
2023-01-17T12:28:47.944Z,73.32
2023-01-17T12:32:03.877Z,72.09
2023-01-17T12:34:39.688Z,70.27
2023-01-17T12:37:19.870Z,71.75
2023-01-17T12:40:05.265Z,70.03
2023-01-17T12:42:43.219Z,70.14
2023-01-17T12:45:22.904Z,69.04
2023-01-17T12:47:58.780Z,68.46
2023-01-17T12:50:42.844Z,70.18
2023-01-17T12:53:39.259Z,67.86
2023-01-17T12:56:17.019Z,71.95
2023-01-17T12:58:50.402Z,71.77
2023-01-17T13:01:27.762Z,71.08
2023-01-17T13:04:11.420Z,72.16
2023-01-17T13:06:51.024Z,73.96
2023-01-17T13:09:22.873Z,74.06
2023-01-17T13:12:00.676Z,73.24
2023-01-17T13:14:29.033Z,73.23
2023-01-17T13:17:00.488Z,74.87
2023-01-17T13:19:53.732Z,74.83
2023-01-17T13:22:24.223Z,74.34
2023-01-17T13:25:07.098Z,76.98
2023-01-17T13:28:11.049Z,73.06
2023-01-17T13:30:58.783Z,74.40
2023-01-17T13:33:36.291Z,75.12
2023-01-17T13:36:30.024Z,75.28
2023-01-17T13:39:18.209Z,77.91
2023-01-17T13:42:11.651Z,75.77
2023-01-17T13:44:40.125Z,73.98
2023-01-17T13:47:11.346Z,76.40
2023-01-17T13:49:51.366Z,83.73
2023-01-17T13:52:19.398Z,88.28
2023-01-17T13:54:53.760Z,87.70
2023-01-17T13:57:40.033Z,85.31
2023-01-17T14:00:22.226Z,88.27
2023-01-17T14:02:52.653Z,86.58
2023-01-17T14:05:23.390Z,86.21
2023-01-17T14:08:02.553Z,87.28
2023-01-17T14:10:34.318Z,87.81
2023-01-17T14:13:04.718Z,87.48
2023-01-17T14:15:35.560Z,84.98
2023-01-17T14:18:05.868Z,86.32
2023-01-17T14:20:40.431Z,88.28
2023-01-17T14:23:32.341Z,87.16
2023-01-17T14:26:32.756Z,87.35
2023-01-17T14:29:39.554Z,88.67
2023-01-17T14:32:12.211Z,88.00
2023-01-17T14:34:40.749Z,90.51
2023-01-17T14:37:27.472Z,89.16
2023-01-17T14:39:56.101Z,90.93
2023-01-17T14:42:27.898Z,91.73
2023-01-17T14:45:01.327Z,91.47
2023-01-17T14:47:35.802Z,92.44
2023-01-17T14:50:26.491Z,94.33
2023-01-17T14:53:30.612Z,94.32
2023-01-17T14:56:03.008Z,94.19
2023-01-17T14:58:33.650Z,94.35
2023-01-17T15:01:19.387Z,95.80
2023-01-17T15:03:48.987Z,96.43
2023-01-17T15:06:20.971Z,96.23
2023-01-17T15:08:50.108Z,96.37
2023-01-17T15:11:24.842Z,96.07
2023-01-17T15:13:57.519Z,96.35
2023-01-17T15:16:27.786Z,97.79
2023-01-17T15:18:57.438Z,98.50
2023-01-17T15:21:33.303Z,98.73
2023-01-17T15:24:07.189Z,99.14
2023-01-17T15:26:39.463Z,98.77
2023-01-17T15:29:15.832Z,97.89
2023-01-17T15:31:50.500Z,97.72
2023-01-17T15:34:32.190Z,98.60
2023-01-17T15:37:03.994Z,100.00
2023-01-17T15:39:35.926Z,100.00
2023-01-17T15:42:22.722Z,100.00
2023-01-17T15:44:56.175Z,100.00
2023-01-17T15:47:38.716Z,100.00
2023-01-17T15:50:26.717Z,100.00
2023-01-17T15:53:17.978Z,100.00
2023-01-17T15:55:48.064Z,100.00
2023-01-17T15:58:28.710Z,100.00
2023-01-17T16:00:57.235Z,100.00
2023-01-17T16:03:29.623Z,100.00
2023-01-17T16:06:00.555Z,100.00
2023-01-17T16:08:39.269Z,99.84
2023-01-17T16:11:10.798Z,99.87
2023-01-17T16:13:42.086Z,99.20
2023-01-17T16:16:22.284Z,99.27
2023-01-17T16:18:59.099Z,99.99
2023-01-17T16:21:31.665Z,100.00
2023-01-17T16:24:00.782Z,100.00
2023-01-17T16:26:29.489Z,100.00
2023-01-17T16:28:57.656Z,100.00
2023-01-17T16:31:26.589Z,100.00
2023-01-17T16:33:54.992Z,100.00
2023-01-17T16:36:23.378Z,100.00
2023-01-17T16:38:52.487Z,100.00
2023-01-17T16:41:21.112Z,100.00
2023-01-17T16:44:01.540Z,100.00
2023-01-17T16:46:30.408Z,100.00
2023-01-17T16:49:01.724Z,100.00
2023-01-17T16:51:30.316Z,100.00
2023-01-17T16:53:58.533Z,100.00
2023-01-17T16:56:27.084Z,100.00
2023-01-17T16:58:56.493Z,100.00
2023-01-17T17:01:25.644Z,100.00
2023-01-17T17:03:54.035Z,100.00
2023-01-17T17:06:22.532Z,100.00
2023-01-17T17:08:51.630Z,100.00
2023-01-17T17:11:23.153Z,100.00
2023-01-17T17:13:52.024Z,100.00
2023-01-17T17:16:30.127Z,100.00
2023-01-17T17:19:04.941Z,100.00
2023-01-17T17:21:35.172Z,100.00
2023-01-17T17:24:04.536Z,100.00
2023-01-17T17:26:36.697Z,100.00
2023-01-17T17:29:06.802Z,100.00
2023-01-17T17:31:35.200Z,100.00
2023-01-17T17:34:04.989Z,100.00
2023-01-17T17:36:34.480Z,100.00
2023-01-17T17:39:04.799Z,100.00
2023-01-17T17:41:35.333Z,100.00
2023-01-17T17:44:04.729Z,100.00
2023-01-17T17:46:33.887Z,100.00
2023-01-17T17:49:02.960Z,100.00
2023-01-17T17:51:34.578Z,100.00
2023-01-17T17:54:11.610Z,100.00
2023-01-17T17:56:41.004Z,100.00
2023-01-17T17:59:09.891Z,100.00
2023-01-17T18:01:38.938Z,100.00
2023-01-17T18:04:08.267Z,100.00
2023-01-17T18:06:38.593Z,100.00
2023-01-17T18:09:08.444Z,100.00
2023-01-17T18:11:39.356Z,100.00
2023-01-17T18:14:10.616Z,100.00
2023-01-17T18:16:42.787Z,100.00
2023-01-17T18:19:16.762Z,100.00
2023-01-17T18:21:45.381Z,100.00
2023-01-17T18:24:15.979Z,100.00
2023-01-17T18:26:48.507Z,100.00
2023-01-17T18:29:21.907Z,100.00
2023-01-17T18:31:52.075Z,100.00
2023-01-17T18:34:28.532Z,100.00
2023-01-17T18:36:58.151Z,100.00
2023-01-17T18:39:29.233Z,100.00
2023-01-17T18:41:58.502Z,100.00
2023-01-17T18:44:27.753Z,100.00
2023-01-17T18:47:02.029Z,100.00
2023-01-17T18:49:33.176Z,100.00
2023-01-17T18:52:01.610Z,100.00
2023-01-17T18:54:30.014Z,100.00
2023-01-17T18:56:58.978Z,100.00
2023-01-17T18:59:27.537Z,100.00
2023-01-17T19:01:55.980Z,100.00
2023-01-17T19:04:25.054Z,100.00
2023-01-17T19:06:53.757Z,100.00
2023-01-17T19:09:22.365Z,100.00
2023-01-17T19:11:51.544Z,100.00
2023-01-17T19:14:20.273Z,100.00
2023-01-17T19:16:48.406Z,100.00
2023-01-17T19:19:17.320Z,100.00
2023-01-17T19:21:46.280Z,100.00
2023-01-17T19:24:14.807Z,100.00
2023-01-17T19:26:43.949Z,100.00
2023-01-17T19:29:12.443Z,100.00
2023-01-17T19:31:43.170Z,100.00
2023-01-17T19:34:19.093Z,100.00
2023-01-17T19:36:47.674Z,100.00
2023-01-17T19:39:16.220Z,100.00
2023-01-17T19:41:46.216Z,100.00
2023-01-17T19:44:15.195Z,100.00
2023-01-17T19:46:46.177Z,100.00
2023-01-17T19:49:19.761Z,100.00
2023-01-17T19:51:49.577Z,100.00
2023-01-17T19:54:18.064Z,100.00
2023-01-17T19:56:46.466Z,100.00
2023-01-17T19:59:15.351Z,100.00
2023-01-17T20:01:43.663Z,100.00
2023-01-17T20:04:12.938Z,100.00
2023-01-17T20:06:41.150Z,100.00
2023-01-17T20:09:10.299Z,100.00
2023-01-17T20:11:42.253Z,100.00
2023-01-17T20:14:14.899Z,100.00
2023-01-17T20:16:47.662Z,100.00
2023-01-17T20:19:16.423Z,100.00
2023-01-17T20:21:45.033Z,100.00
2023-01-17T20:24:13.973Z,100.00
2023-01-17T20:26:44.017Z,100.00
2023-01-17T20:29:16.969Z,100.00
2023-01-17T20:31:46.230Z,100.00
2023-01-17T20:34:18.798Z,100.00
2023-01-17T20:36:47.303Z,100.00
2023-01-17T20:39:16.193Z,100.00
2023-01-17T20:41:49.020Z,100.00
2023-01-17T20:44:19.421Z,100.00
2023-01-17T20:46:48.240Z,100.00
2023-01-17T20:49:19.450Z,100.00
2023-01-17T20:51:48.438Z,100.00
2023-01-17T20:54:21.190Z,100.00
2023-01-17T20:56:50.000Z,100.00
2023-01-17T20:59:22.342Z,100.00
2023-01-17T21:01:51.775Z,100.00
2023-01-17T21:04:26.239Z,100.00
2023-01-17T21:06:55.303Z,100.00
2023-01-17T21:09:23.493Z,100.00
2023-01-17T21:11:51.966Z,100.00
2023-01-17T21:14:21.860Z,100.00
2023-01-17T21:16:50.425Z,100.00
2023-01-17T21:19:20.615Z,100.00
2023-01-17T21:21:50.198Z,100.00
2023-01-17T21:24:19.662Z,100.00
2023-01-17T21:26:49.721Z,100.00
2023-01-17T21:29:18.317Z,100.00
2023-01-17T21:31:46.805Z,100.00
2023-01-17T21:34:15.314Z,100.00
2023-01-17T21:36:43.799Z,100.00
2023-01-17T21:39:19.163Z,100.00
2023-01-17T21:41:50.738Z,100.00
2023-01-17T21:44:21.632Z,100.00
2023-01-17T21:46:56.265Z,100.00
2023-01-17T21:49:24.838Z,100.00
2023-01-17T21:51:54.222Z,100.00
2023-01-17T21:54:44.410Z,100.00
2023-01-17T21:57:41.105Z,100.00
2023-01-17T22:00:14.588Z,100.00
2023-01-17T22:02:45.822Z,100.00
2023-01-17T22:05:16.434Z,100.00
2023-01-17T22:08:05.640Z,100.00
2023-01-17T22:10:44.556Z,100.00
2023-01-17T22:13:14.309Z,100.00
2023-01-17T22:15:43.069Z,100.00
2023-01-17T22:18:13.106Z,100.00
2023-01-17T22:20:42.659Z,100.00
2023-01-17T22:23:11.774Z,100.00
2023-01-17T22:25:40.249Z,100.00
2023-01-17T22:28:08.923Z,100.00
2023-01-17T22:30:37.375Z,100.00
2023-01-17T22:33:05.766Z,100.00
2023-01-17T22:35:34.129Z,100.00
2023-01-17T22:38:02.235Z,100.00
2023-01-17T22:40:32.931Z,100.00
2023-01-17T22:43:01.434Z,100.00
2023-01-17T22:45:29.640Z,100.00
2023-01-17T22:47:57.874Z,100.00
2023-01-17T22:50:26.580Z,100.00
2023-01-17T22:52:54.987Z,100.00
2023-01-17T22:55:23.168Z,100.00
2023-01-17T22:57:51.827Z,100.00
2023-01-17T23:00:20.081Z,100.00
2023-01-17T23:02:48.181Z,100.00
2023-01-17T23:05:16.740Z,100.00
2023-01-17T23:07:49.984Z,100.00
2023-01-17T23:10:38.694Z,100.00
2023-01-17T23:13:10.446Z,100.00
2023-01-17T23:15:57.424Z,100.00
2023-01-17T23:18:44.505Z,100.00
2023-01-17T23:21:13.057Z,100.00
2023-01-17T23:23:41.173Z,100.00
2023-01-17T23:26:09.457Z,100.00
2023-01-17T23:28:38.007Z,100.00
2023-01-17T23:31:06.560Z,100.00
2023-01-17T23:33:34.902Z,100.00
2023-01-17T23:36:03.404Z,100.00
2023-01-17T23:38:33.926Z,100.00
2023-01-17T23:41:28.180Z,100.00
2023-01-17T23:43:58.336Z,100.00
2023-01-17T23:46:26.770Z,100.00
2023-01-17T23:48:55.360Z,100.00
2023-01-17T23:51:23.840Z,100.00
2023-01-17T23:53:57.567Z,100.00
2023-01-17T23:56:26.122Z,100.00
2023-01-17T23:58:54.333Z,100.00
